sensor_id;sensor_type;location;lat;lon;timestamp;pressure;altitude;pressure_sealevel;temperature;humidity
33496;BME280;19836;55.812;37.560;2022-09-09T06:42:51;100577.88;;;11.12;59.62
33496;BME280;19836;55.812;37.560;2022-09-09T06:45:28;100577.69;;;11.23;59.30
33496;BME280;19836;55.812;37.560;2022-09-09T06:47:58;100583.78;;;11.31;59.02
33496;BME280;19836;55.812;37.560;2022-09-09T06:50:36;100592.63;;;11.34;58.28
33496;BME280;19836;55.812;37.560;2022-09-09T06:53:02;100594.22;;;11.44;57.67
33496;BME280;19836;55.812;37.560;2022-09-09T06:55:33;100592.28;;;11.52;57.29
33496;BME280;19836;55.812;37.560;2022-09-09T06:58:08;100595.00;;;11.49;56.47
33496;BME280;19836;55.812;37.560;2022-09-09T07:00:41;100604.00;;;11.47;56.40
33496;BME280;19836;55.812;37.560;2022-09-09T08:02:53;100640.47;;;13.13;51.20
33496;BME280;19836;55.812;37.560;2022-09-09T08:08:36;100640.50;;;13.12;50.82
33496;BME280;19836;55.812;37.560;2022-09-09T08:14:46;100641.56;;;13.06;50.29
33496;BME280;19836;55.812;37.560;2022-09-09T09:24:01;100631.34;;;20.02;40.64
33496;BME280;19836;55.812;37.560;2022-09-09T09:26:34;100648.38;;;21.01;38.39
33496;BME280;19836;55.812;37.560;2022-09-09T09:29:10;100642.56;;;21.07;36.53
33496;BME280;19836;55.812;37.560;2022-09-09T09:31:38;100628.47;;;22.31;35.57
33496;BME280;19836;55.812;37.560;2022-09-09T09:34:04;100626.25;;;24.09;33.33
33496;BME280;19836;55.812;37.560;2022-09-09T09:36:41;100633.03;;;25.38;31.05
33496;BME280;19836;55.812;37.560;2022-09-09T09:39:33;100631.81;;;26.44;29.38
33496;BME280;19836;55.812;37.560;2022-09-09T09:42:10;100638.31;;;25.87;28.15
33496;BME280;19836;55.812;37.560;2022-09-09T09:44:41;100630.69;;;23.21;29.45
33496;BME280;19836;55.812;37.560;2022-09-09T09:47:19;100639.41;;;20.99;31.71
33496;BME280;19836;55.812;37.560;2022-09-09T09:49:59;100643.94;;;19.36;33.48
33496;BME280;19836;55.812;37.560;2022-09-09T09:52:31;100644.81;;;18.27;35.16
33496;BME280;19836;55.812;37.560;2022-09-09T09:55:03;100644.78;;;17.90;36.14
33496;BME280;19836;55.812;37.560;2022-09-09T09:57:33;100651.28;;;17.46;36.69
33496;BME280;19836;55.812;37.560;2022-09-09T10:00:21;100654.16;;;17.43;37.43
33496;BME280;19836;55.812;37.560;2022-09-09T10:03:14;100635.41;;;21.20;34.77
33496;BME280;19836;55.812;37.560;2022-09-09T10:05:46;100622.53;;;24.35;30.96
33496;BME280;19836;55.812;37.560;2022-09-09T10:08:15;100619.31;;;26.18;27.90
33496;BME280;19836;55.812;37.560;2022-09-09T10:19:15;100637.22;;;21.35;29.56
33496;BME280;19836;55.812;37.560;2022-09-09T10:22:05;100646.97;;;19.81;31.08
33496;BME280;19836;55.812;37.560;2022-09-09T10:38:16;100651.91;;;20.07;32.21
33496;BME280;19836;55.812;37.560;2022-09-09T10:56:30;100639.94;;;24.34;25.97
33496;BME280;19836;55.812;37.560;2022-09-09T10:59:12;100644.09;;;22.57;27.31
33496;BME280;19836;55.812;37.560;2022-09-09T11:01:53;100661.03;;;21.02;29.20
33496;BME280;19836;55.812;37.560;2022-09-09T11:04:27;100654.63;;;20.07;30.53
33496;BME280;19836;55.812;37.560;2022-09-09T11:06:58;100652.19;;;19.16;31.58
33496;BME280;19836;55.812;37.560;2022-09-09T11:09:33;100652.28;;;18.42;33.09
33496;BME280;19836;55.812;37.560;2022-09-09T11:12:02;100648.38;;;17.91;34.15
33496;BME280;19836;55.812;37.560;2022-09-09T11:14:35;100655.91;;;17.44;35.01
33496;BME280;19836;55.812;37.560;2022-09-09T11:17:13;100673.31;;;17.17;35.40
33496;BME280;19836;55.812;37.560;2022-09-09T11:19:43;100654.59;;;19.41;34.47
33496;BME280;19836;55.812;37.560;2022-09-09T11:22:39;100646.38;;;23.83;29.97
33496;BME280;19836;55.812;37.560;2022-09-09T11:33:34;100652.91;;;29.35;22.15
33496;BME280;19836;55.812;37.560;2022-09-09T11:36:37;100654.69;;;27.22;22.87
33496;BME280;19836;55.812;37.560;2022-09-09T11:41:40;100656.81;;;21.87;27.41
33496;BME280;19836;55.812;37.560;2022-09-09T11:44:18;100655.19;;;20.77;29.11
33496;BME280;19836;55.812;37.560;2022-09-09T11:46:49;100654.00;;;19.85;30.32
33496;BME280;19836;55.812;37.560;2022-09-09T11:49:40;100658.19;;;19.24;31.35
33496;BME280;19836;55.812;37.560;2022-09-09T11:52:38;100661.56;;;18.92;32.01
33496;BME280;19836;55.812;37.560;2022-09-09T11:55:10;100652.31;;;18.96;32.28
33496;BME280;19836;55.812;37.560;2022-09-09T11:57:38;100642.41;;;19.65;31.65
33496;BME280;19836;55.812;37.560;2022-09-09T12:00:05;100646.34;;;21.05;30.11
33496;BME280;19836;55.812;37.560;2022-09-09T12:02:48;100637.44;;;24.06;27.98
33496;BME280;19836;55.812;37.560;2022-09-09T12:05:15;100635.47;;;26.56;24.92
33496;BME280;19836;55.812;37.560;2022-09-09T12:07:58;100626.38;;;27.94;22.95
33496;BME280;19836;55.812;37.560;2022-09-09T12:10:30;100635.81;;;25.49;23.78
33496;BME280;19836;55.812;37.560;2022-09-09T12:15:54;100631.25;;;23.12;26.37
33496;BME280;19836;55.812;37.560;2022-09-09T12:18:26;100631.78;;;22.22;27.12
33496;BME280;19836;55.812;37.560;2022-09-09T12:24:26;100640.66;;;20.30;29.41
33496;BME280;19836;55.812;37.560;2022-09-09T12:26:43;100647.47;;;19.55;30.64
33496;BME280;19836;55.812;37.560;2022-09-09T12:29:53;100637.44;;;18.86;32.17
33496;BME280;19836;55.812;37.560;2022-09-09T12:32:25;100643.00;;;18.28;32.96
33496;BME280;19836;55.812;37.560;2022-09-09T12:37:42;100630.13;;;18.88;32.93
33496;BME280;19836;55.812;37.560;2022-09-09T12:40:27;100638.53;;;20.20;31.21
33496;BME280;19836;55.812;37.560;2022-09-09T12:42:53;100640.38;;;21.43;30.06
33496;BME280;19836;55.812;37.560;2022-09-09T12:45:23;100638.81;;;21.39;29.52
33496;BME280;19836;55.812;37.560;2022-09-09T12:48:09;100627.94;;;21.83;28.94
33496;BME280;19836;55.812;37.560;2022-09-09T12:50:50;100639.72;;;21.24;29.01
33496;BME280;19836;55.812;37.560;2022-09-09T12:53:37;100631.28;;;20.36;29.51
33496;BME280;19836;55.812;37.560;2022-09-09T12:56:06;100638.19;;;19.93;30.01
33496;BME280;19836;55.812;37.560;2022-09-09T12:58:37;100640.44;;;19.51;30.43
33496;BME280;19836;55.812;37.560;2022-09-09T13:01:05;100621.91;;;19.07;31.28
33496;BME280;19836;55.812;37.560;2022-09-09T13:03:32;100625.13;;;18.79;31.60
33496;BME280;19836;55.812;37.560;2022-09-09T13:06:10;100634.41;;;18.92;31.76
33496;BME280;19836;55.812;37.560;2022-09-09T13:08:37;100632.44;;;19.65;31.66
33496;BME280;19836;55.812;37.560;2022-09-09T13:11:09;100635.44;;;20.10;31.01
33496;BME280;19836;55.812;37.560;2022-09-09T13:13:35;100633.22;;;21.11;30.16
33496;BME280;19836;55.812;37.560;2022-09-09T13:16:03;100627.66;;;22.01;28.84
33496;BME280;19836;55.812;37.560;2022-09-09T13:18:33;100637.44;;;20.86;29.27
33496;BME280;19836;55.812;37.560;2022-09-09T13:21:00;100634.44;;;21.21;29.39
33496;BME280;19836;55.812;37.560;2022-09-09T13:23:31;100643.34;;;20.15;30.15
33496;BME280;19836;55.812;37.560;2022-09-09T13:26:02;100640.19;;;19.39;30.78
33496;BME280;19836;55.812;37.560;2022-09-09T13:28:30;100641.28;;;18.64;31.81
33496;BME280;19836;55.812;37.560;2022-09-09T13:31:05;100641.59;;;18.01;33.05
33496;BME280;19836;55.812;37.560;2022-09-09T13:33:37;100646.72;;;17.48;33.95
33496;BME280;19836;55.812;37.560;2022-09-09T13:36:06;100643.97;;;16.85;35.13
33496;BME280;19836;55.812;37.560;2022-09-09T13:38:37;100648.38;;;16.45;35.93
33496;BME280;19836;55.812;37.560;2022-09-09T13:45:37;100640.88;;;16.05;36.76
33496;BME280;19836;55.812;37.560;2022-09-09T13:52:12;100647.22;;;15.57;37.57
33496;BME280;19836;55.812;37.560;2022-09-09T13:55:04;100642.63;;;15.33;37.68
33496;BME280;19836;55.812;37.560;2022-09-09T13:57:57;100649.69;;;15.12;38.26
33496;BME280;19836;55.812;37.560;2022-09-09T14:00:23;100652.69;;;15.03;38.78
33496;BME280;19836;55.812;37.560;2022-09-09T14:02:50;100641.31;;;14.94;38.70
33496;BME280;19836;55.812;37.560;2022-09-09T14:08:43;100641.78;;;15.06;39.54
33496;BME280;19836;55.812;37.560;2022-09-09T14:11:12;100641.44;;;15.15;39.15
33496;BME280;19836;55.812;37.560;2022-09-09T14:13:38;100636.13;;;15.14;39.57
33496;BME280;19836;55.812;37.560;2022-09-09T14:16:04;100635.75;;;15.24;39.39
33496;BME280;19836;55.812;37.560;2022-09-09T14:18:30;100630.59;;;15.43;39.19
33496;BME280;19836;55.812;37.560;2022-09-09T14:20:57;100628.75;;;15.45;39.67
33496;BME280;19836;55.812;37.560;2022-09-09T14:23:24;100639.59;;;15.43;39.59
33496;BME280;19836;55.812;37.560;2022-09-09T14:25:51;100638.66;;;15.44;39.47
33496;BME280;19836;55.812;37.560;2022-09-09T14:28:17;100640.31;;;15.48;39.23
33496;BME280;19836;55.812;37.560;2022-09-09T14:30:43;100631.44;;;15.69;38.64
33496;BME280;19836;55.812;37.560;2022-09-09T14:33:14;100630.63;;;15.67;38.13
33496;BME280;19836;55.812;37.560;2022-09-09T14:35:41;100636.44;;;15.55;38.60
33496;BME280;19836;55.812;37.560;2022-09-09T14:38:08;100626.31;;;15.37;38.47
33496;BME280;19836;55.812;37.560;2022-09-09T14:40:35;100627.88;;;15.18;38.63
33496;BME280;19836;55.812;37.560;2022-09-09T14:43:03;100629.03;;;15.11;38.75
33496;BME280;19836;55.812;37.560;2022-09-09T14:46:18;100629.88;;;15.12;39.39
33496;BME280;19836;55.812;37.560;2022-09-09T14:48:50;100635.19;;;15.15;38.96
33496;BME280;19836;55.812;37.560;2022-09-09T14:59:29;100632.63;;;15.10;38.94
33496;BME280;19836;55.812;37.560;2022-09-09T15:02:05;100626.28;;;14.85;39.87
33496;BME280;19836;55.812;37.560;2022-09-09T15:42:01;100655.25;;;13.31;45.09
33496;BME280;19836;55.812;37.560;2022-09-09T15:44:28;100653.81;;;13.18;45.54
33496;BME280;19836;55.812;37.560;2022-09-09T15:47:39;100661.22;;;13.10;46.07
33496;BME280;19836;55.812;37.560;2022-09-09T15:50:26;100661.59;;;12.93;46.38
33496;BME280;19836;55.812;37.560;2022-09-09T15:53:26;100655.75;;;12.76;46.51
33496;BME280;19836;55.812;37.560;2022-09-09T15:56:04;100664.03;;;12.67;46.95
33496;BME280;19836;55.812;37.560;2022-09-09T15:58:59;100670.53;;;12.59;47.17
33496;BME280;19836;55.812;37.560;2022-09-09T16:01:53;100680.59;;;12.49;47.42
33496;BME280;19836;55.812;37.560;2022-09-09T16:06:19;100676.31;;;12.41;47.78
33496;BME280;19836;55.812;37.560;2022-09-09T17:58:06;100748.38;;;10.07;56.25
33496;BME280;19836;55.812;37.560;2022-09-09T19:48:00;100758.56;;;8.74;61.81
33496;BME280;19836;55.812;37.560;2022-09-09T19:50:52;100763.00;;;8.71;62.01
33496;BME280;19836;55.812;37.560;2022-09-09T19:53:20;100769.31;;;8.65;62.23
33496;BME280;19836;55.812;37.560;2022-09-09T19:55:48;100762.19;;;8.61;62.50
33496;BME280;19836;55.812;37.560;2022-09-09T19:58:16;100767.53;;;8.60;62.55
33496;BME280;19836;55.812;37.560;2022-09-09T20:00:41;100772.88;;;8.58;62.61
33496;BME280;19836;55.812;37.560;2022-09-09T20:03:07;100775.56;;;8.58;62.75
33496;BME280;19836;55.812;37.560;2022-09-09T20:27:13;100782.78;;;8.38;63.44
33496;BME280;19836;55.812;37.560;2022-09-09T20:29:40;100789.06;;;8.34;63.90
33496;BME280;19836;55.812;37.560;2022-09-09T20:32:06;100790.84;;;8.31;64.14
33496;BME280;19836;55.812;37.560;2022-09-09T20:34:32;100788.19;;;8.29;64.21
33496;BME280;19836;55.812;37.560;2022-09-09T20:36:59;100789.06;;;8.28;64.46
33496;BME280;19836;55.812;37.560;2022-09-09T20:39:27;100791.75;;;8.25;64.29
33496;BME280;19836;55.812;37.560;2022-09-09T20:41:52;100798.00;;;8.24;64.65
33496;BME280;19836;55.812;37.560;2022-09-09T20:44:20;100795.34;;;8.23;64.60
33496;BME280;19836;55.812;37.560;2022-09-09T20:46:50;100787.28;;;8.19;64.70
33496;BME280;19836;55.812;37.560;2022-09-09T20:49:19;100794.44;;;8.19;64.76
33496;BME280;19836;55.812;37.560;2022-09-09T20:51:46;100789.09;;;8.19;64.88
33496;BME280;19836;55.812;37.560;2022-09-09T20:54:23;100790.00;;;8.17;65.28
33496;BME280;19836;55.812;37.560;2022-09-09T20:56:50;100788.22;;;8.14;65.16
33496;BME280;19836;55.812;37.560;2022-09-09T20:59:19;100790.00;;;8.12;65.14
33496;BME280;19836;55.812;37.560;2022-09-09T21:01:45;100792.69;;;8.09;65.24
33496;BME280;19836;55.812;37.560;2022-09-09T21:04:13;100794.47;;;8.04;65.57
33496;BME280;19836;55.812;37.560;2022-09-09T21:06:40;100788.25;;;8.05;65.74
33496;BME280;19836;55.812;37.560;2022-09-09T21:09:06;100796.22;;;8.08;65.94
33496;BME280;19836;55.812;37.560;2022-09-09T21:11:32;100797.13;;;8.08;65.89
33496;BME280;19836;55.812;37.560;2022-09-09T21:14:00;100798.91;;;8.08;66.28
33496;BME280;19836;55.812;37.560;2022-09-09T21:16:26;100794.47;;;8.07;66.26
33496;BME280;19836;55.812;37.560;2022-09-09T21:18:52;100797.16;;;8.04;66.49
33496;BME280;19836;55.812;37.560;2022-09-09T21:21:19;100804.28;;;7.99;66.44
33496;BME280;19836;55.812;37.560;2022-09-09T21:23:47;100800.72;;;7.95;66.57
33496;BME280;19836;55.812;37.560;2022-09-09T21:26:13;100802.50;;;7.93;66.84
33496;BME280;19836;55.812;37.560;2022-09-09T21:28:39;100805.19;;;7.89;66.91
33496;BME280;19836;55.812;37.560;2022-09-09T21:31:05;100801.66;;;7.84;67.16
33496;BME280;19836;55.812;37.560;2022-09-09T21:33:32;100799.88;;;7.80;67.40
33496;BME280;19836;55.812;37.560;2022-09-09T21:36:05;100807.00;;;7.82;67.39
33496;BME280;19836;55.812;37.560;2022-09-09T21:38:32;100803.44;;;7.79;67.41
33496;BME280;19836;55.812;37.560;2022-09-09T21:41:10;100804.34;;;7.73;67.74
33496;BME280;19836;55.812;37.560;2022-09-09T21:43:37;100806.13;;;7.70;67.80
33496;BME280;19836;55.812;37.560;2022-09-09T21:46:09;100810.56;;;7.74;67.87
33496;BME280;19836;55.812;37.560;2022-09-09T21:48:35;100807.00;;;7.73;67.82
33496;BME280;19836;55.812;37.560;2022-09-09T21:51:06;100807.88;;;7.77;68.28
33496;BME280;19836;55.812;37.560;2022-09-09T21:53:33;100815.91;;;7.72;68.06
33496;BME280;19836;55.812;37.560;2022-09-09T21:56:04;100807.91;;;7.67;68.41
33496;BME280;19836;55.812;37.560;2022-09-09T21:58:34;100811.44;;;7.67;68.20
33496;BME280;19836;55.812;37.560;2022-09-09T22:01:01;100807.91;;;7.67;68.70
33496;BME280;19836;55.812;37.560;2022-09-09T22:03:35;100817.69;;;7.66;68.68
33496;BME280;19836;55.812;37.560;2022-09-09T22:06:04;100814.13;;;7.67;69.02
33496;BME280;19836;55.812;37.560;2022-09-09T22:08:31;100810.59;;;7.68;68.97
33496;BME280;19836;55.812;37.560;2022-09-09T22:11:14;100814.13;;;7.72;69.23
33496;BME280;19836;55.812;37.560;2022-09-09T22:13:41;100815.91;;;7.71;69.30
33496;BME280;19836;55.812;37.560;2022-09-09T22:16:08;100812.34;;;7.69;69.33
33496;BME280;19836;55.812;37.560;2022-09-09T22:18:36;100807.03;;;7.69;69.55
33496;BME280;19836;55.812;37.560;2022-09-09T22:21:14;100813.25;;;7.67;69.82
33496;BME280;19836;55.812;37.560;2022-09-09T22:23:40;100807.91;;;7.67;69.81
33496;BME280;19836;55.812;37.560;2022-09-09T22:26:06;100811.47;;;7.66;70.01
33496;BME280;19836;55.812;37.560;2022-09-09T22:28:33;100817.69;;;7.64;70.08
33496;BME280;19836;55.812;37.560;2022-09-09T22:30:59;100814.13;;;7.63;70.02
33496;BME280;19836;55.812;37.560;2022-09-09T22:33:25;100805.28;;;7.61;69.93
33496;BME280;19836;55.812;37.560;2022-09-09T22:35:52;100807.94;;;7.59;70.30
33496;BME280;19836;55.812;37.560;2022-09-09T22:38:19;100803.47;;;7.55;70.48
33496;BME280;19836;55.812;37.560;2022-09-09T22:40:46;100798.13;;;7.52;70.55
33496;BME280;19836;55.812;37.560;2022-09-09T22:43:14;100801.72;;;7.48;70.95
33496;BME280;19836;55.812;37.560;2022-09-09T22:45:41;100805.28;;;7.44;70.78
33496;BME280;19836;55.812;37.560;2022-09-09T22:48:07;100802.59;;;7.41;71.12
33496;BME280;19836;55.812;37.560;2022-09-09T22:50:34;100799.94;;;7.41;71.20
33496;BME280;19836;55.812;37.560;2022-09-09T22:53:00;100807.06;;;7.39;71.40
33496;BME280;19836;55.812;37.560;2022-09-09T22:55:26;100811.47;;;7.37;71.30
33496;BME280;19836;55.812;37.560;2022-09-09T22:57:52;100812.38;;;7.38;71.74
33496;BME280;19836;55.812;37.560;2022-09-09T23:00:18;100808.84;;;7.34;71.56
33496;BME280;19836;55.812;37.560;2022-09-09T23:02:44;100815.06;;;7.32;71.54
33496;BME280;19836;55.812;37.560;2022-09-09T23:05:13;100814.19;;;7.28;71.77
33496;BME280;19836;55.812;37.560;2022-09-09T23:07:39;100817.72;;;7.30;71.79
33496;BME280;19836;55.812;37.560;2022-09-09T23:10:06;100817.72;;;7.30;72.02
33496;BME280;19836;55.812;37.560;2022-09-09T23:12:32;100810.63;;;7.29;72.04
33496;BME280;19836;55.812;37.560;2022-09-09T23:14:58;100815.06;;;7.32;72.12
33496;BME280;19836;55.812;37.560;2022-09-09T23:17:25;100818.63;;;7.31;72.15
33496;BME280;19836;55.812;37.560;2022-09-09T23:19:51;100816.84;;;7.27;72.04
33496;BME280;19836;55.812;37.560;2022-09-09T23:22:24;100814.16;;;7.22;72.03
33496;BME280;19836;55.812;37.560;2022-09-09T23:24:51;100818.59;;;7.20;72.34
33496;BME280;19836;55.812;37.560;2022-09-09T23:27:18;100816.81;;;7.14;72.43
33496;BME280;19836;55.812;37.560;2022-09-09T23:34:02;100819.50;;;7.19;72.31
33496;BME280;19836;55.812;37.560;2022-09-09T23:39:31;100824.81;;;7.18;72.39
33496;BME280;19836;55.812;37.560;2022-09-09T23:41:57;100822.16;;;7.16;72.52
33496;BME280;19836;55.812;37.560;2022-09-09T23:44:24;100824.81;;;7.19;72.42
33496;BME280;19836;55.812;37.560;2022-09-09T23:46:50;100818.63;;;7.16;72.77
33496;BME280;19836;55.812;37.560;2022-09-09T23:49:16;100818.59;;;7.14;73.17
33496;BME280;19836;55.812;37.560;2022-09-09T23:51:42;100823.03;;;7.12;73.11
33496;BME280;19836;55.812;37.560;2022-09-09T23:54:09;100823.03;;;7.07;73.01
33496;BME280;19836;55.812;37.560;2022-09-09T23:56:38;100824.81;;;7.06;73.21
33496;BME280;19836;55.812;37.560;2022-09-09T23:59:06;100832.81;;;7.04;73.19
